Beattie, Kansas
Current Conditions -  °F | °C
As of 11:55 AM on Saturday 22 Nov 2014 (Local Time) from KMYZ Reporting Station
Overcast Overcast  
Wind Chill: 52°   Ceiling: 500
Heat Index: 52°   Visibility: 7mi
Dew Point: 48°   Wind: 8mph
Humidity: 88%   Direction: 210°SSW
Pressure: 29.81"   Gusts: NA
Location:  39.86°N, 96.42°W
Report Text: KMYZ 221755Z AUTO 21007KT 7SM OVC005 11/09 A2981 RMK AO2
Loading
Personal Weather Stations






























Interactive Weather Map New forecast layout! Learn more

10-Day Weather Forecast

Advertisements
Track Severe Weather on mobile